Ta-fan-lieh, Taiwan
Current Conditions -  °F | °C
As of 2:00 AM on Friday 31 Oct 2014 (Local Time) from RCKH Reporting Station
Broken Clouds Broken Clouds  
Wind Chill: 77°   Ceiling: 4000
Heat Index: 78°   Visibility: 4mi
Dew Point: 72°   Wind: 5mph
Humidity: 83%   Direction: 320°NW
Pressure: 29.94"   Gusts: NA
Location:  21.97°N, 120.77°E
Report Text: RCKH 301800Z 32004KT 6000 FEW016 BKN040 25/22 Q1014 NOSIGRMK A2996
Loading
Personal Weather Stations






























Interactive Weather Map
Tropical Storm Tracking
New forecast layout! Learn more

10-Day Weather Forecast

Advertisements
Track Severe Weather on mobile